createdAt,value
2019-04-03T00:00:31.244Z,14.34
2019-04-03T00:05:36.379Z,14.30
2019-04-03T00:10:41.656Z,14.27
2019-04-03T00:15:46.694Z,14.18
2019-04-03T00:20:51.785Z,14.13
2019-04-03T00:25:57.126Z,14.11
2019-04-03T00:31:02.116Z,14.07
2019-04-03T00:36:07.432Z,14.06
2019-04-03T00:41:12.430Z,14.03
2019-04-03T00:46:18.652Z,14.02
2019-04-03T00:51:23.644Z,14.02
2019-04-03T00:56:29.740Z,14.00
2019-04-03T01:01:34.873Z,14.00
2019-04-03T01:06:42.894Z,13.96
2019-04-03T01:11:48.004Z,13.95
2019-04-03T01:16:52.959Z,13.95
2019-04-03T01:21:57.948Z,13.95
2019-04-03T01:27:02.887Z,13.93
2019-04-03T01:32:09.244Z,13.90
2019-04-03T01:37:14.265Z,13.87
2019-04-03T01:42:21.493Z,13.81
2019-04-03T01:47:27.771Z,13.79
2019-04-03T01:52:34.114Z,13.73
2019-04-03T01:57:39.116Z,13.63
2019-04-03T02:02:44.099Z,13.65
2019-04-03T02:07:49.016Z,13.58
2019-04-03T02:12:58.229Z,13.52
2019-04-03T02:18:03.464Z,13.50
2019-04-03T02:23:08.436Z,13.48
2019-04-03T02:28:13.405Z,13.47
2019-04-03T02:33:28.615Z,13.43
2019-04-03T02:38:35.947Z,13.40
2019-04-03T02:43:41.151Z,13.40
2019-04-03T02:48:46.174Z,13.32
2019-04-03T02:53:51.342Z,13.26
2019-04-03T02:58:56.441Z,13.23
2019-04-03T03:04:02.020Z,13.26
2019-04-03T03:09:07.151Z,13.28
2019-04-03T03:14:13.186Z,13.29
2019-04-03T03:19:18.659Z,13.27
2019-04-03T03:24:23.638Z,13.27
2019-04-03T03:29:31.712Z,13.24
2019-04-03T03:34:54.106Z,13.19
2019-04-03T03:39:47.480Z,13.16
2019-04-03T03:44:58.774Z,13.10
2019-04-03T03:50:05.700Z,13.06
2019-04-03T03:55:12.456Z,13.05
2019-04-03T04:00:22.391Z,12.98
2019-04-03T04:05:28.392Z,12.91
2019-04-03T04:10:38.061Z,12.83
2019-04-03T04:15:43.898Z,12.80
2019-04-03T04:20:49.088Z,12.77
2019-04-03T04:25:54.534Z,12.77
2019-04-03T04:31:00.224Z,12.76
2019-04-03T04:36:05.250Z,12.77
2019-04-03T04:41:10.672Z,12.79
2019-04-03T04:46:15.680Z,12.80
2019-04-03T04:51:21.725Z,12.81
2019-04-03T04:56:27.176Z,12.80
2019-04-03T05:01:32.318Z,12.77
2019-04-03T05:06:37.513Z,12.78
2019-04-03T05:11:42.497Z,12.84
2019-04-03T05:16:47.454Z,12.83
2019-04-03T05:21:53.111Z,12.81
2019-04-03T05:26:58.572Z,12.87
2019-04-03T05:32:03.570Z,12.82
2019-04-03T05:37:11.409Z,12.84
2019-04-03T05:42:15.757Z,12.85
2019-04-03T05:47:20.723Z,12.90
2019-04-03T05:52:26.187Z,12.96
2019-04-03T05:57:33.057Z,13.01
2019-04-03T06:02:40.909Z,13.02
2019-04-03T06:07:47.034Z,13.03
2019-04-03T06:12:53.645Z,13.05
2019-04-03T06:18:01.102Z,13.11
2019-04-03T06:23:06.359Z,13.16
2019-04-03T06:28:13.330Z,13.20
2019-04-03T06:33:18.308Z,13.29
2019-04-03T06:38:24.523Z,13.31
2019-04-03T06:43:30.790Z,13.31
2019-04-03T06:48:36.512Z,13.29
2019-04-03T06:53:43.138Z,13.35
2019-04-03T06:58:48.193Z,13.36
2019-04-03T07:03:53.166Z,13.39
2019-04-03T07:08:58.249Z,13.49
2019-04-03T07:14:03.733Z,13.43
2019-04-03T07:19:09.057Z,13.42
2019-04-03T07:24:14.405Z,13.47
2019-04-03T07:29:19.649Z,13.55
2019-04-03T07:34:24.677Z,13.62
2019-04-03T07:39:29.742Z,13.68
2019-04-03T07:44:35.005Z,13.82
2019-04-03T07:49:40.491Z,13.85
2019-04-03T07:54:45.878Z,13.82
2019-04-03T07:59:50.901Z,13.79
2019-04-03T08:04:59.463Z,13.90
2019-04-03T08:10:02.651Z,14.10
2019-04-03T08:15:09.245Z,14.35
2019-04-03T08:20:14.856Z,14.57
2019-04-03T08:25:20.222Z,14.69
2019-04-03T08:30:25.368Z,14.90
2019-04-03T08:35:30.873Z,15.04
2019-04-03T08:40:37.979Z,15.06
2019-04-03T08:45:43.108Z,15.07
2019-04-03T08:50:54.235Z,15.05
2019-04-03T08:56:02.534Z,15.09
2019-04-03T09:01:10.432Z,15.20
2019-04-03T09:06:14.716Z,15.38
2019-04-03T09:11:19.875Z,15.44
2019-04-03T09:16:24.910Z,15.63
2019-04-03T09:21:30.055Z,15.92
2019-04-03T09:26:38.113Z,15.95
2019-04-03T09:31:43.358Z,15.94
2019-04-03T09:36:48.342Z,15.89
2019-04-03T09:41:53.425Z,15.84
2019-04-03T09:46:58.440Z,15.94
2019-04-03T09:52:03.700Z,16.11
2019-04-03T09:57:08.679Z,16.28
2019-04-03T10:02:13.752Z,16.45
2019-04-03T10:07:18.809Z,16.57
2019-04-03T10:12:23.898Z,16.71
2019-04-03T10:17:29.236Z,16.81
2019-04-03T10:22:34.315Z,16.79
2019-04-03T10:27:42.544Z,16.70
2019-04-03T10:32:46.049Z,17.18
2019-04-03T10:37:52.055Z,17.68
2019-04-03T10:42:59.855Z,18.12
2019-04-03T10:48:04.350Z,18.32
2019-04-03T10:53:09.345Z,18.25
2019-04-03T10:58:15.226Z,18.17
2019-04-03T11:03:20.691Z,18.03
2019-04-03T11:08:25.959Z,17.91
2019-04-03T11:13:32.249Z,17.59
2019-04-03T11:18:38.485Z,17.64
2019-04-03T11:23:45.580Z,17.91
2019-04-03T11:28:51.487Z,17.83
2019-04-03T11:33:58.427Z,17.63
2019-04-03T11:39:12.336Z,17.51
2019-04-03T11:44:12.007Z,17.45
2019-04-03T11:49:19.361Z,17.33
2019-04-03T11:54:24.425Z,17.23
2019-04-03T11:59:29.479Z,17.13
2019-04-03T12:04:34.873Z,17.15
2019-04-03T12:09:40.065Z,17.60
2019-04-03T12:14:48.450Z,18.93
2019-04-03T12:19:54.555Z,20.38
2019-04-03T12:25:00.003Z,21.95
2019-04-03T12:30:06.668Z,23.04
2019-04-03T12:35:11.796Z,23.55
2019-04-03T12:40:17.225Z,21.88
2019-04-03T12:45:22.724Z,21.16
2019-04-03T12:50:29.035Z,21.75
2019-04-03T12:55:34.159Z,23.09
2019-04-03T13:00:46.170Z,24.27
2019-04-03T13:05:51.716Z,24.34
2019-04-03T13:10:57.190Z,24.22
2019-04-03T13:16:02.773Z,23.42
2019-04-03T13:21:09.232Z,23.38
2019-04-03T13:26:14.405Z,23.75
2019-04-03T13:31:19.887Z,24.27
2019-04-03T13:36:25.179Z,24.22
2019-04-03T13:41:33.288Z,24.07
2019-04-03T13:46:37.526Z,24.39
2019-04-03T13:51:42.649Z,24.23
2019-04-03T13:56:47.883Z,24.30
2019-04-03T14:01:53.050Z,23.90
2019-04-03T14:06:58.501Z,24.40
2019-04-03T14:12:05.211Z,24.33
2019-04-03T14:17:13.639Z,24.07
2019-04-03T14:22:18.143Z,23.70
2019-04-03T14:27:28.466Z,24.07
2019-04-03T14:32:31.177Z,23.97
2019-04-03T14:37:36.428Z,23.41
2019-04-03T14:42:41.561Z,22.94
2019-04-03T14:47:46.733Z,22.21
2019-04-03T14:52:52.517Z,21.63
2019-04-03T14:57:57.768Z,21.29
2019-04-03T15:03:04.736Z,20.83
2019-04-03T15:08:09.697Z,20.56
2019-04-03T15:13:16.935Z,20.46
2019-04-03T15:18:45.607Z,20.20
2019-04-03T15:23:48.964Z,20.04
2019-04-03T15:28:54.694Z,19.97
2019-04-03T15:34:00.476Z,19.83
2019-04-03T15:39:12.552Z,19.78
2019-04-03T15:44:20.045Z,19.80
2019-04-03T15:49:26.604Z,19.76
2019-04-03T15:54:33.030Z,19.81
2019-04-03T15:59:38.730Z,19.87
2019-04-03T16:04:44.116Z,19.74
2019-04-03T16:09:51.283Z,19.60
2019-04-03T16:14:57.449Z,19.35
2019-04-03T16:20:03.068Z,19.22
2019-04-03T16:25:09.747Z,19.13
2019-04-03T16:30:24.316Z,19.01
2019-04-03T16:35:31.149Z,18.84
2019-04-03T16:40:39.021Z,18.74
2019-04-03T16:45:44.597Z,18.69
2019-04-03T16:50:50.009Z,18.59
2019-04-03T16:55:57.985Z,18.52
2019-04-03T17:01:03.154Z,18.53
2019-04-03T17:06:08.235Z,18.53
2019-04-03T17:11:14.818Z,18.49
2019-04-03T17:16:20.027Z,18.49
2019-04-03T17:21:25.643Z,18.45
2019-04-03T17:26:32.061Z,18.39
2019-04-03T17:31:42.290Z,18.32
2019-04-03T17:36:47.331Z,18.22
2019-04-03T17:41:56.573Z,18.15
2019-04-03T17:47:01.702Z,18.07
2019-04-03T17:52:06.933Z,18.01
2019-04-03T17:57:13.703Z,17.97
2019-04-03T18:02:24.601Z,17.88
2019-04-03T18:07:30.889Z,17.81
2019-04-03T18:12:35.965Z,17.71
2019-04-03T18:17:41.011Z,17.64
2019-04-03T18:22:46.023Z,17.62
2019-04-03T18:27:51.129Z,17.56
2019-04-03T18:32:58.048Z,17.48
2019-04-03T18:38:03.300Z,17.40
2019-04-03T18:43:08.451Z,17.36
2019-04-03T18:48:16.247Z,17.31
2019-04-03T18:53:21.109Z,17.27
2019-04-03T18:58:26.247Z,17.16
2019-04-03T19:03:31.519Z,17.07
2019-04-03T19:08:36.654Z,16.96
2019-04-03T19:13:44.497Z,16.89
2019-04-03T19:18:49.229Z,16.84
2019-04-03T19:23:54.467Z,16.78
2019-04-03T19:28:59.549Z,16.74
2019-04-03T19:34:05.709Z,16.77
2019-04-03T19:39:11.014Z,16.82
2019-04-03T19:44:18.069Z,16.87
2019-04-03T19:49:23.405Z,16.78
2019-04-03T19:54:28.509Z,16.85
2019-04-03T19:59:35.097Z,16.85
2019-04-03T20:04:40.559Z,16.84
2019-04-03T20:09:45.589Z,16.73
2019-04-03T20:14:57.957Z,16.74
2019-04-03T20:19:58.858Z,16.64
2019-04-03T20:25:03.849Z,16.69
2019-04-03T20:30:09.268Z,16.66
2019-04-03T20:35:14.351Z,16.62
2019-04-03T20:40:19.538Z,16.60
2019-04-03T20:45:26.385Z,16.58
2019-04-03T20:50:31.432Z,16.53
2019-04-03T20:55:36.553Z,16.52
2019-04-03T21:00:41.797Z,16.43
2019-04-03T21:05:48.857Z,16.41
2019-04-03T21:10:54.055Z,16.36
2019-04-03T21:15:59.199Z,16.26
2019-04-03T21:21:04.347Z,16.23
2019-04-03T21:26:09.385Z,16.18
2019-04-03T21:31:14.448Z,16.12
2019-04-03T21:36:19.560Z,16.08
2019-04-03T21:41:24.671Z,16.09
2019-04-03T21:46:29.704Z,16.03
2019-04-03T21:51:35.053Z,16.05
2019-04-03T21:56:40.075Z,16.08
2019-04-03T22:01:46.153Z,16.12
2019-04-03T22:06:51.261Z,16.11
2019-04-03T22:11:56.364Z,16.08
2019-04-03T22:17:01.391Z,16.04
2019-04-03T22:22:06.469Z,15.95
2019-04-03T22:27:12.522Z,15.88
2019-04-03T22:32:17.675Z,15.89
2019-04-03T22:37:22.867Z,15.93
2019-04-03T22:42:28.222Z,15.72
2019-04-03T22:47:33.228Z,15.54
2019-04-03T22:52:39.922Z,15.41
2019-04-03T22:57:45.320Z,15.22
2019-04-03T23:02:50.426Z,15.14
2019-04-03T23:07:55.405Z,15.04
2019-04-03T23:13:00.738Z,14.91
2019-04-03T23:18:05.764Z,14.79
2019-04-03T23:23:10.873Z,14.62
2019-04-03T23:28:15.864Z,14.61
2019-04-03T23:33:21.054Z,14.57
2019-04-03T23:38:26.726Z,14.55
2019-04-03T23:43:32.225Z,14.52
2019-04-03T23:48:37.232Z,14.51
2019-04-03T23:53:42.275Z,14.50
2019-04-03T23:58:47.328Z,14.44
